createdAt,value
2023-06-20T00:00:26.476Z,4.95
2023-06-20T00:02:54.326Z,6.40
2023-06-20T00:05:22.558Z,5.43
2023-06-20T00:07:51.723Z,5.60
2023-06-20T00:10:19.577Z,5.47
2023-06-20T00:12:47.527Z,5.68
2023-06-20T00:15:15.407Z,6.53
2023-06-20T00:17:43.267Z,7.72
2023-06-20T00:20:11.712Z,6.32
2023-06-20T00:22:39.608Z,5.32
2023-06-20T00:25:09.418Z,8.15
2023-06-20T00:27:37.371Z,6.57
2023-06-20T00:30:05.934Z,6.55
2023-06-20T00:32:34.534Z,7.07
2023-06-20T00:35:02.454Z,4.35
2023-06-20T00:37:30.413Z,5.07
2023-06-20T00:39:58.360Z,4.72
2023-06-20T00:42:27.831Z,5.63
2023-06-20T00:44:56.189Z,5.43
2023-06-20T00:47:25.184Z,6.20
2023-06-20T00:49:55.158Z,5.18
2023-06-20T00:52:24.117Z,6.53
2023-06-20T00:54:51.956Z,5.00
2023-06-20T00:57:21.780Z,5.05
2023-06-20T00:59:52.143Z,5.40
2023-06-20T01:02:21.713Z,7.30
2023-06-20T01:04:50.030Z,5.57
2023-06-20T01:07:26.162Z,5.80
2023-06-20T01:10:00.214Z,6.57
2023-06-20T01:12:34.840Z,6.63
2023-06-20T01:15:15.101Z,5.20
2023-06-20T01:17:47.814Z,8.68
2023-06-20T01:20:20.622Z,4.57
2023-06-20T01:22:58.498Z,6.82
2023-06-20T01:25:34.578Z,5.53
2023-06-20T01:28:08.447Z,5.75
2023-06-20T01:30:43.352Z,6.03
2023-06-20T01:33:14.934Z,5.90
2023-06-20T01:35:45.102Z,8.90
2023-06-20T01:38:16.870Z,6.65
2023-06-20T01:40:50.445Z,7.75
2023-06-20T01:43:20.698Z,6.47
2023-06-20T01:45:51.210Z,7.30
2023-06-20T01:48:22.154Z,6.30
2023-06-20T01:50:51.524Z,6.78
2023-06-20T01:53:22.451Z,6.57
2023-06-20T01:55:51.683Z,11.02
2023-06-20T01:58:20.739Z,6.93
2023-06-20T02:00:50.246Z,6.63
2023-06-20T02:03:21.009Z,5.55
2023-06-20T02:05:50.497Z,5.88
2023-06-20T02:08:20.569Z,6.05
2023-06-20T02:10:48.845Z,8.05
2023-06-20T02:13:17.438Z,9.10
2023-06-20T02:15:46.516Z,5.93
2023-06-20T02:18:14.445Z,7.57
2023-06-20T02:20:42.799Z,5.22
2023-06-20T02:23:12.147Z,5.63
2023-06-20T02:25:46.846Z,10.45
2023-06-20T02:28:16.335Z,5.47
2023-06-20T02:30:50.062Z,7.32
2023-06-20T02:33:20.975Z,6.60
2023-06-20T02:35:51.842Z,8.30
2023-06-20T02:38:19.719Z,6.82
2023-06-20T02:40:51.593Z,6.47
2023-06-20T02:43:19.565Z,6.55
2023-06-20T02:45:52.603Z,7.63
2023-06-20T02:48:29.424Z,7.03
2023-06-20T02:51:07.624Z,5.63
2023-06-20T02:53:45.387Z,7.22
2023-06-20T02:56:17.042Z,6.20
2023-06-20T02:58:48.906Z,9.27
2023-06-20T03:01:24.292Z,9.32
2023-06-20T03:03:55.250Z,5.93
2023-06-20T03:06:28.219Z,9.52
2023-06-20T03:08:59.623Z,7.15
2023-06-20T03:11:29.240Z,8.15
2023-06-20T03:13:57.302Z,6.82
2023-06-20T03:16:27.718Z,7.45
2023-06-20T03:18:55.948Z,9.02
2023-06-20T03:21:29.420Z,9.68
2023-06-20T03:24:00.070Z,6.53
2023-06-20T03:26:29.843Z,9.70
2023-06-20T03:28:58.428Z,7.70
2023-06-20T03:31:27.533Z,7.15
2023-06-20T03:33:55.398Z,6.65
2023-06-20T03:36:23.274Z,7.63
2023-06-20T03:38:53.326Z,7.07
2023-06-20T03:41:23.022Z,5.88
2023-06-20T03:43:52.399Z,6.25
2023-06-20T03:46:20.279Z,6.57
2023-06-20T03:48:49.704Z,11.15
2023-06-20T03:51:18.637Z,7.95
2023-06-20T03:53:46.578Z,9.00
2023-06-20T03:56:14.561Z,7.60
2023-06-20T03:58:42.867Z,7.82
2023-06-20T04:01:12.034Z,6.25
2023-06-20T04:03:39.884Z,9.68
2023-06-20T04:06:07.894Z,6.18
2023-06-20T04:08:36.657Z,8.65
2023-06-20T04:11:04.694Z,8.07
2023-06-20T04:13:32.537Z,7.60
2023-06-20T04:16:00.480Z,11.50
2023-06-20T04:18:31.377Z,8.88
2023-06-20T04:20:59.379Z,10.05
2023-06-20T04:23:27.609Z,16.63
2023-06-20T04:25:55.544Z,13.07
2023-06-20T04:28:23.452Z,14.93
2023-06-20T04:30:57.971Z,13.90
2023-06-20T04:33:26.386Z,24.90
2023-06-20T04:35:58.900Z,17.67
2023-06-20T04:38:32.672Z,15.07
2023-06-20T04:41:01.970Z,18.55
2023-06-20T04:43:30.132Z,12.27
2023-06-20T04:45:58.593Z,11.60
2023-06-20T04:48:29.507Z,17.25
2023-06-20T04:50:59.312Z,16.30
2023-06-20T04:53:27.441Z,22.40
2023-06-20T04:55:55.672Z,18.20
2023-06-20T04:58:23.561Z,13.52
2023-06-20T05:00:53.128Z,18.30
2023-06-20T05:03:21.622Z,21.67
2023-06-20T05:05:49.552Z,14.63
2023-06-20T05:08:18.876Z,12.85
2023-06-20T05:10:46.928Z,15.02
2023-06-20T05:13:14.754Z,13.30
2023-06-20T05:15:42.649Z,16.10
2023-06-20T05:18:10.547Z,12.65
2023-06-20T05:20:38.401Z,12.23
2023-06-20T05:23:06.329Z,10.63
2023-06-20T05:25:35.749Z,13.45
2023-06-20T05:28:06.514Z,11.57
2023-06-20T05:30:34.654Z,9.88
2023-06-20T05:33:02.539Z,13.48
2023-06-20T05:35:30.505Z,12.75
2023-06-20T05:37:58.333Z,16.23
2023-06-20T05:40:26.611Z,15.40
2023-06-20T05:42:56.028Z,11.88
2023-06-20T05:45:23.872Z,14.38
2023-06-20T05:47:51.748Z,15.63
2023-06-20T05:50:19.672Z,15.38
2023-06-20T05:52:47.491Z,13.02
2023-06-20T05:55:15.376Z,16.50
2023-06-20T05:57:43.162Z,21.50
2023-06-20T06:00:13.849Z,15.63
2023-06-20T06:02:47.629Z,14.85
2023-06-20T06:05:15.563Z,12.93
2023-06-20T06:07:43.379Z,15.10
2023-06-20T06:10:11.803Z,13.73
2023-06-20T06:12:41.726Z,21.20
2023-06-20T06:15:10.940Z,18.38
2023-06-20T06:17:40.204Z,15.18
2023-06-20T06:20:12.574Z,14.02
2023-06-20T06:25:09.161Z,15.23
2023-06-20T06:27:37.095Z,18.25
2023-06-20T06:30:05.557Z,15.55
2023-06-20T06:32:35.945Z,13.27
2023-06-20T06:35:06.103Z,12.95
2023-06-20T06:37:34.694Z,11.32
2023-06-20T06:40:05.065Z,14.15
2023-06-20T06:42:32.901Z,14.65
2023-06-20T06:45:03.769Z,14.00
2023-06-20T06:47:31.672Z,19.20
2023-06-20T06:49:59.565Z,17.63
2023-06-20T06:52:28.907Z,13.43
2023-06-20T06:54:56.995Z,16.13
2023-06-20T06:57:24.792Z,14.10
2023-06-20T06:59:52.685Z,14.45
2023-06-20T07:02:21.693Z,16.35
2023-06-20T07:04:49.572Z,13.73
2023-06-20T07:07:17.376Z,11.80
2023-06-20T07:09:46.602Z,14.48
2023-06-20T07:12:15.098Z,14.32
2023-06-20T07:14:42.975Z,13.65
2023-06-20T07:17:10.891Z,11.75
2023-06-20T07:19:38.780Z,13.25
2023-06-20T07:22:07.198Z,15.10
2023-06-20T07:24:35.093Z,12.27
2023-06-20T07:27:04.510Z,17.98
2023-06-20T07:29:32.511Z,19.63
2023-06-20T07:32:00.530Z,11.45
2023-06-20T07:34:28.452Z,12.48
2023-06-20T07:36:56.261Z,12.63
2023-06-20T07:39:24.200Z,12.02
2023-06-20T07:41:52.005Z,12.48
2023-06-20T07:44:21.190Z,18.05
2023-06-20T07:46:49.074Z,10.00
2023-06-20T07:49:16.892Z,12.82
2023-06-20T07:51:47.340Z,12.98
2023-06-20T07:54:16.444Z,12.25
2023-06-20T07:56:44.374Z,14.00
2023-06-20T07:59:12.359Z,12.10
2023-06-20T08:01:41.600Z,14.23
2023-06-20T08:04:09.540Z,16.10
2023-06-20T08:06:37.403Z,14.90
2023-06-20T08:09:06.247Z,20.92
2023-06-20T08:11:35.589Z,12.30
2023-06-20T08:14:03.658Z,16.05
2023-06-20T08:16:31.513Z,13.07
2023-06-20T08:19:00.912Z,14.60
2023-06-20T08:21:28.773Z,13.18
2023-06-20T08:23:56.856Z,12.25
2023-06-20T08:26:24.740Z,13.88
2023-06-20T08:28:52.567Z,14.40
2023-06-20T08:31:20.418Z,10.32
2023-06-20T08:33:48.329Z,13.90
2023-06-20T08:36:17.507Z,10.63
2023-06-20T08:38:45.353Z,14.68
2023-06-20T08:41:13.215Z,13.18
2023-06-20T08:43:41.461Z,12.82
2023-06-20T08:46:09.329Z,11.85
2023-06-20T08:48:37.223Z,12.10
2023-06-20T08:51:05.125Z,12.95
2023-06-20T08:53:35.039Z,12.63
2023-06-20T08:56:04.162Z,13.23
2023-06-20T08:58:33.588Z,15.65
2023-06-20T09:01:01.472Z,14.50
2023-06-20T09:03:29.801Z,14.38
2023-06-20T09:05:59.028Z,16.80
2023-06-20T09:08:38.341Z,12.45
2023-06-20T09:11:07.856Z,13.82
2023-06-20T09:13:35.950Z,11.77
2023-06-20T09:16:08.450Z,16.48
2023-06-20T09:18:36.932Z,12.50
2023-06-20T09:21:05.463Z,14.25
2023-06-20T09:23:34.533Z,13.45
2023-06-20T09:26:15.052Z,13.48
2023-06-20T09:28:42.943Z,11.75
2023-06-20T09:31:10.866Z,12.70
2023-06-20T09:33:39.356Z,9.65
2023-06-20T09:36:14.645Z,10.30
2023-06-20T09:38:44.277Z,9.02
2023-06-20T09:41:18.242Z,11.15
2023-06-20T09:43:46.316Z,10.82
2023-06-20T09:46:15.365Z,9.30
2023-06-20T09:48:45.614Z,11.68
2023-06-20T09:51:13.472Z,9.65
2023-06-20T09:53:46.642Z,9.68
2023-06-20T09:56:16.339Z,7.70
2023-06-20T09:58:47.135Z,9.77
2023-06-20T10:01:16.495Z,9.32
2023-06-20T10:03:45.274Z,8.85
2023-06-20T10:06:13.440Z,8.57
2023-06-20T10:08:42.427Z,10.77
2023-06-20T10:11:10.287Z,9.20
2023-06-20T10:13:38.267Z,7.70
2023-06-20T10:16:07.724Z,8.45
2023-06-20T10:18:39.835Z,9.30
2023-06-20T10:21:08.320Z,7.85
2023-06-20T10:23:38.560Z,7.47
2023-06-20T10:26:09.237Z,8.35
2023-06-20T10:28:39.003Z,11.30
2023-06-20T10:31:08.395Z,7.55
2023-06-20T10:33:37.529Z,9.65
2023-06-20T10:36:07.560Z,7.03
2023-06-20T10:38:38.605Z,7.75
2023-06-20T10:41:11.367Z,7.75
2023-06-20T10:43:48.966Z,9.80
2023-06-20T10:46:19.105Z,8.02
2023-06-20T10:48:47.203Z,7.22
2023-06-20T10:51:15.164Z,6.78
2023-06-20T10:53:42.975Z,7.43
2023-06-20T10:56:23.649Z,6.53
2023-06-20T10:58:51.559Z,6.85
2023-06-20T11:01:20.980Z,6.53
2023-06-20T11:03:50.369Z,7.95
2023-06-20T11:06:18.408Z,6.95
2023-06-20T11:08:47.110Z,8.18
2023-06-20T11:11:14.998Z,7.65
2023-06-20T11:13:44.797Z,6.00
2023-06-20T11:16:19.230Z,7.15
2023-06-20T11:18:48.619Z,7.03
2023-06-20T11:21:17.518Z,7.32
2023-06-20T11:23:45.347Z,5.93
2023-06-20T11:26:13.147Z,6.95
2023-06-20T11:28:40.992Z,5.32
2023-06-20T11:31:12.448Z,7.32
2023-06-20T11:33:40.468Z,6.05
2023-06-20T11:36:10.601Z,5.53
2023-06-20T11:38:40.597Z,5.65
2023-06-20T11:41:10.009Z,6.63
2023-06-20T11:43:39.687Z,7.55
2023-06-20T11:46:08.650Z,5.53
2023-06-20T11:48:37.498Z,6.38
2023-06-20T11:51:06.906Z,6.43
2023-06-20T11:53:37.416Z,6.72
2023-06-20T11:58:40.453Z,7.72
2023-06-20T12:01:12.183Z,8.07
2023-06-20T12:03:42.662Z,6.25
2023-06-20T12:06:30.584Z,5.85
2023-06-20T12:09:01.554Z,6.93
2023-06-20T12:11:29.712Z,6.78
2023-06-20T12:13:57.924Z,6.18
2023-06-20T12:16:27.219Z,6.75
2023-06-20T12:18:57.886Z,5.45
2023-06-20T12:21:25.757Z,8.05
2023-06-20T12:23:53.649Z,5.80
2023-06-20T12:26:23.342Z,6.82
2023-06-20T12:28:51.326Z,5.82
2023-06-20T12:31:19.164Z,6.88
2023-06-20T12:33:47.043Z,7.65
2023-06-20T12:36:16.682Z,6.65
2023-06-20T12:38:44.768Z,6.45
2023-06-20T12:41:12.865Z,6.72
2023-06-20T12:43:42.187Z,6.28
2023-06-20T12:46:11.358Z,7.13
2023-06-20T12:48:39.355Z,7.07
2023-06-20T12:51:07.218Z,9.32
2023-06-20T12:53:36.343Z,5.63
2023-06-20T12:56:04.561Z,6.95
2023-06-20T12:58:33.777Z,5.85
2023-06-20T13:01:03.518Z,5.63
2023-06-20T13:03:31.391Z,6.28
2023-06-20T13:05:59.444Z,8.30
2023-06-20T13:08:27.966Z,5.50
2023-06-20T13:10:55.820Z,9.50
2023-06-20T13:13:23.657Z,6.22
2023-06-20T13:15:51.522Z,8.20
2023-06-20T13:18:21.673Z,9.85
2023-06-20T13:20:49.858Z,6.20
2023-06-20T13:23:17.741Z,6.53
2023-06-20T13:25:46.025Z,8.85
2023-06-20T13:28:14.140Z,6.25
2023-06-20T13:30:44.253Z,5.55
2023-06-20T13:33:12.310Z,6.72
2023-06-20T13:35:41.522Z,6.82
2023-06-20T13:38:09.822Z,8.07
2023-06-20T13:40:37.846Z,7.45
2023-06-20T13:43:07.803Z,7.53
2023-06-20T13:45:36.231Z,7.28
2023-06-20T13:48:04.153Z,6.80
2023-06-20T13:50:32.018Z,5.93
2023-06-20T13:53:01.213Z,5.80
2023-06-20T13:55:29.031Z,7.90
2023-06-20T13:57:56.901Z,7.20
2023-06-20T14:00:25.024Z,6.00
2023-06-20T14:02:53.151Z,7.90
2023-06-20T14:05:21.323Z,5.90
2023-06-20T14:07:50.393Z,6.05
2023-06-20T14:10:19.602Z,7.22
2023-06-20T14:12:49.116Z,5.65
2023-06-20T14:15:17.226Z,6.32
2023-06-20T14:17:45.236Z,7.57
2023-06-20T14:20:13.572Z,7.22
2023-06-20T14:22:41.588Z,7.57
2023-06-20T14:25:09.495Z,6.43
2023-06-20T14:27:38.707Z,7.03
2023-06-20T14:30:08.648Z,6.93
2023-06-20T14:32:36.651Z,5.93
2023-06-20T14:35:04.830Z,5.55
2023-06-20T14:37:32.647Z,6.47
2023-06-20T14:40:00.522Z,5.60
2023-06-20T14:42:28.346Z,5.93
2023-06-20T14:44:57.559Z,5.30
2023-06-20T14:47:25.539Z,7.43
2023-06-20T14:49:53.476Z,6.60
2023-06-20T14:52:21.404Z,6.93
2023-06-20T14:54:49.213Z,5.22
2023-06-20T14:57:17.050Z,6.57
2023-06-20T14:59:44.906Z,5.25
2023-06-20T15:02:14.131Z,5.85
2023-06-20T15:04:42.016Z,6.38
2023-06-20T15:07:09.849Z,7.40
2023-06-20T15:09:37.674Z,5.40
2023-06-20T15:12:06.369Z,5.72
2023-06-20T15:14:36.128Z,6.15
2023-06-20T15:17:04.051Z,5.88
2023-06-20T15:19:33.806Z,8.43
2023-06-20T15:22:01.736Z,6.03
2023-06-20T15:24:33.497Z,6.25
2023-06-20T15:27:01.708Z,6.60
2023-06-20T15:29:29.597Z,5.53
2023-06-20T15:31:57.455Z,6.38
2023-06-20T15:34:25.393Z,6.97
2023-06-20T15:36:54.601Z,5.47
2023-06-20T15:39:22.413Z,5.47
2023-06-20T15:41:50.632Z,5.30
2023-06-20T15:44:18.658Z,6.35
2023-06-20T15:46:54.071Z,6.95
2023-06-20T15:49:23.136Z,5.85
2023-06-20T15:51:51.203Z,6.05
2023-06-20T15:54:20.777Z,5.30
2023-06-20T15:56:48.680Z,5.72
2023-06-20T15:59:17.684Z,5.07
2023-06-20T16:01:46.238Z,7.95
2023-06-20T16:04:14.362Z,5.65
2023-06-20T16:06:42.278Z,5.13
2023-06-20T16:09:10.495Z,6.10
2023-06-20T16:11:39.741Z,5.53
2023-06-20T16:14:07.720Z,7.07
2023-06-20T16:16:35.638Z,6.03
2023-06-20T16:19:03.645Z,7.72
2023-06-20T16:21:32.588Z,6.30
2023-06-20T16:24:00.612Z,6.90
2023-06-20T16:26:28.736Z,7.75
2023-06-20T16:28:57.972Z,7.47
2023-06-20T16:31:25.908Z,7.43
2023-06-20T16:33:55.312Z,5.82
2023-06-20T16:36:23.155Z,6.95
2023-06-20T16:38:52.258Z,5.88
2023-06-20T16:41:20.116Z,6.47
2023-06-20T16:43:47.986Z,7.05
2023-06-20T16:46:17.890Z,7.13
2023-06-20T16:48:47.451Z,5.05
2023-06-20T16:51:16.705Z,5.40
2023-06-20T16:53:45.535Z,5.70
2023-06-20T16:56:13.478Z,7.65
2023-06-20T16:58:41.305Z,5.72
2023-06-20T17:01:11.604Z,6.25
2023-06-20T17:03:40.956Z,7.03
2023-06-20T17:06:08.815Z,6.88
2023-06-20T17:08:36.696Z,6.40
2023-06-20T17:11:04.559Z,6.18
2023-06-20T17:13:32.418Z,10.88
2023-06-20T17:16:00.230Z,6.15
2023-06-20T17:18:28.054Z,7.43
2023-06-20T17:20:57.341Z,6.70
2023-06-20T17:23:25.237Z,6.82
2023-06-20T17:25:53.117Z,5.78
2023-06-20T17:28:21.397Z,6.10
2023-06-20T17:30:49.236Z,5.90
2023-06-20T17:33:17.560Z,6.53
2023-06-20T17:35:45.425Z,6.53
2023-06-20T17:38:14.835Z,6.28
2023-06-20T17:40:43.311Z,17.15
2023-06-20T17:43:11.189Z,7.13
2023-06-20T17:45:39.092Z,7.55
2023-06-20T17:48:07.086Z,7.07
2023-06-20T17:50:35.031Z,6.65
2023-06-20T17:53:02.892Z,6.22
2023-06-20T17:55:32.120Z,6.45
2023-06-20T17:58:02.328Z,6.20
2023-06-20T18:00:31.638Z,7.70
2023-06-20T18:02:59.749Z,32.17
2023-06-20T18:05:28.158Z,8.40
2023-06-20T18:07:57.580Z,6.80
2023-06-20T18:10:27.130Z,7.22
2023-06-20T18:12:57.485Z,6.90
2023-06-20T18:15:27.022Z,7.78
2023-06-20T18:17:55.169Z,6.45
2023-06-20T18:20:23.396Z,8.98
2023-06-20T18:22:51.501Z,7.25
2023-06-20T18:25:19.691Z,6.80
2023-06-20T18:27:47.532Z,7.68
2023-06-20T18:30:16.936Z,7.57
2023-06-20T18:32:44.870Z,7.72
2023-06-20T18:35:12.735Z,6.55
2023-06-20T18:37:41.283Z,8.50
2023-06-20T18:40:10.190Z,8.45
2023-06-20T18:42:38.060Z,6.70
2023-06-20T18:45:06.974Z,11.00
2023-06-20T18:47:38.950Z,7.85
2023-06-20T18:50:08.251Z,7.85
2023-06-20T18:52:39.522Z,8.70
2023-06-20T18:55:08.548Z,6.68
2023-06-20T18:57:36.503Z,8.43
2023-06-20T19:00:05.449Z,7.70
2023-06-20T19:02:33.448Z,8.75
2023-06-20T19:05:04.091Z,8.95
2023-06-20T19:07:32.170Z,7.38
2023-06-20T19:10:00.711Z,7.10
2023-06-20T19:12:28.755Z,7.97
2023-06-20T19:14:57.650Z,9.65
2023-06-20T19:17:27.576Z,7.80
2023-06-20T19:19:56.314Z,12.52
2023-06-20T19:22:25.855Z,7.88
2023-06-20T19:24:53.725Z,9.35
2023-06-20T19:27:21.587Z,9.05
2023-06-20T19:29:49.412Z,8.63
2023-06-20T19:32:17.335Z,8.32
2023-06-20T19:34:46.196Z,9.32
2023-06-20T19:37:14.989Z,8.25
2023-06-20T19:39:44.343Z,8.07
2023-06-20T19:42:12.366Z,8.95
2023-06-20T19:44:40.481Z,7.80
2023-06-20T19:47:08.479Z,8.90
2023-06-20T19:49:36.384Z,7.80
2023-06-20T19:52:04.522Z,8.45
2023-06-20T19:54:32.384Z,8.05
2023-06-20T19:57:03.856Z,7.95
2023-06-20T19:59:32.009Z,8.70
2023-06-20T20:02:00.188Z,8.20
2023-06-20T20:04:30.091Z,8.30
2023-06-20T20:06:57.953Z,9.45
2023-06-20T20:09:26.043Z,16.70
2023-06-20T20:11:53.901Z,11.43
2023-06-20T20:14:23.150Z,8.32
2023-06-20T20:16:51.064Z,10.25
2023-06-20T20:19:18.895Z,8.88
2023-06-20T20:21:47.419Z,10.80
2023-06-20T20:24:15.837Z,10.90
2023-06-20T20:26:43.754Z,8.32
2023-06-20T20:29:11.620Z,8.65
2023-06-20T20:31:40.909Z,10.32
2023-06-20T20:34:09.148Z,10.48
2023-06-20T20:36:37.002Z,10.15
2023-06-20T20:39:04.873Z,10.35
2023-06-20T20:41:32.977Z,11.30
2023-06-20T20:44:00.902Z,8.52
2023-06-20T20:46:28.769Z,9.38
2023-06-20T20:48:58.982Z,11.40
2023-06-20T20:51:27.162Z,12.93
2023-06-20T20:53:55.017Z,10.05
2023-06-20T20:56:22.820Z,12.68
2023-06-20T20:58:50.683Z,12.20
2023-06-20T21:01:18.544Z,10.75
2023-06-20T21:03:47.371Z,10.27
2023-06-20T21:06:16.655Z,9.30
2023-06-20T21:08:44.527Z,11.90
2023-06-20T21:11:12.784Z,10.85
2023-06-20T21:13:40.602Z,10.27
2023-06-20T21:16:12.467Z,12.43
2023-06-20T21:18:40.443Z,9.70
2023-06-20T21:21:08.519Z,12.05
2023-06-20T21:23:38.733Z,12.25
2023-06-20T21:26:06.632Z,10.85
2023-06-20T21:28:34.652Z,12.30
2023-06-20T21:31:03.653Z,12.73
2023-06-20T21:33:32.653Z,12.50
2023-06-20T21:36:01.086Z,12.88
2023-06-20T21:38:29.814Z,12.95
2023-06-20T21:40:59.353Z,12.10
2023-06-20T21:43:27.257Z,12.10
2023-06-20T21:45:55.158Z,11.27
2023-06-20T21:48:23.105Z,13.00
2023-06-20T21:50:50.934Z,10.75
2023-06-20T21:53:19.123Z,12.10
2023-06-20T21:55:47.240Z,11.40
2023-06-20T21:58:17.099Z,11.48
2023-06-20T22:00:45.031Z,11.43
2023-06-20T22:06:36.532Z,15.73
2023-06-20T22:09:04.552Z,14.15
2023-06-20T22:11:32.412Z,15.27
2023-06-20T22:14:00.223Z,13.57
2023-06-20T22:16:28.100Z,16.33
2023-06-20T22:18:55.935Z,16.73
2023-06-20T22:21:24.091Z,17.00
2023-06-20T22:23:53.335Z,18.95
2023-06-20T22:26:21.152Z,16.48
2023-06-20T22:28:48.981Z,17.90
2023-06-20T22:31:16.934Z,18.80
2023-06-20T22:33:44.775Z,16.27
2023-06-20T22:36:12.649Z,29.73
2023-06-20T22:38:40.404Z,25.25
2023-06-20T22:41:09.655Z,15.57
2023-06-20T22:43:37.548Z,21.02
2023-06-20T22:46:05.843Z,15.00
2023-06-20T22:48:33.768Z,21.10
2023-06-20T22:51:01.628Z,21.40
2023-06-20T22:53:29.419Z,17.20
2023-06-20T22:55:57.296Z,15.38
2023-06-20T22:58:26.493Z,22.35
2023-06-20T23:00:54.296Z,16.58
2023-06-20T23:03:22.169Z,16.45
2023-06-20T23:05:50.078Z,13.43
2023-06-20T23:08:18.283Z,18.17
2023-06-20T23:10:46.139Z,18.30
2023-06-20T23:13:13.973Z,16.98
2023-06-20T23:15:43.274Z,16.33
2023-06-20T23:18:11.326Z,14.60
2023-06-20T23:20:46.429Z,14.88
2023-06-20T23:23:14.383Z,15.77
2023-06-20T23:25:46.379Z,15.93
2023-06-20T23:28:14.781Z,12.23
2023-06-20T23:30:44.103Z,16.58
2023-06-20T23:33:12.716Z,15.52
2023-06-20T23:35:40.670Z,16.05
2023-06-20T23:38:08.465Z,14.20
2023-06-20T23:40:36.356Z,14.63
2023-06-20T23:43:04.873Z,17.05
2023-06-20T23:45:32.728Z,14.38
2023-06-20T23:48:02.088Z,16.02
2023-06-20T23:50:30.036Z,15.82
2023-06-20T23:52:58.045Z,15.15
2023-06-20T23:55:26.179Z,17.40
2023-06-20T23:57:54.076Z,16.88
